Main page
METAR-TAF:

METAR-TAF

Airports :

Ghriss Airport

Ghriss, Algeria

latitude: 35-12N, longitude: 000-08E, elevation: 514 m

Current weather observation

The report was made 44 minutes ago, at 06:00 UTC
Wind 3 kt from the South, varying between South/Southeast and Southwest
Temperature 10°C
Humidity 57%
Pressure 1010 hPa
Visibility 10 km or more
no clouds below 1500 m and no cumulonimbus

METAR: DAOV 080600Z 19003KT 160V230 CAVOK 10/02 Q1010

Time: 07:44 (06:44 UTC)

Forecast

The report was made 1 hour and 44 minutes ago, at 05:00 UTC
Forecast valid from 08 at 06 UTC to 08 at 15 UTC
Wind 10 kt from the South/Southeast
Visibility 10 km or more
no clouds below 1500 m and no cumulonimbus

TAF: DAOV 080500Z 0806/0815 16010KT CAVOK

Weather observations and forecasts of more than 4000 airports (METAR and TAF reports).

The available stations are represented by yellow and red dots on the map.

Hover mouse over dot to see the name of the station.

Then click to see weather observations and forecasts.

To change the map : click on the green buttons with a black cross to zoom in, on the green button with a dash to zoom out, or on the green arrows for adjacent maps.


METAR-TAF: